createdAt,value
2023-05-21T00:04:20.131Z,15.51
2023-05-21T00:09:21.934Z,15.47
2023-05-21T00:14:23.727Z,15.46
2023-05-21T00:19:27.251Z,15.44
2023-05-21T00:24:29.439Z,15.43
2023-05-21T00:29:31.169Z,15.42
2023-05-21T00:34:32.899Z,15.38
2023-05-21T00:39:34.600Z,15.37
2023-05-21T00:44:36.392Z,15.37
2023-05-21T00:49:38.383Z,15.37
2023-05-21T00:54:40.060Z,15.36
2023-05-21T00:59:41.904Z,15.38
2023-05-21T01:04:45.434Z,15.37
2023-05-21T01:09:47.446Z,15.36
2023-05-21T01:14:49.917Z,15.34
2023-05-21T01:19:52.726Z,15.33
2023-05-21T01:24:55.585Z,15.29
2023-05-21T01:29:57.870Z,15.27
2023-05-21T01:35:29.605Z,15.25
2023-05-21T01:40:54.306Z,15.19
2023-05-21T01:45:57.385Z,15.12
2023-05-21T01:51:05.935Z,15.08
2023-05-21T01:56:08.218Z,15.02
2023-05-21T02:01:10.130Z,14.95
2023-05-21T02:06:12.039Z,14.89
2023-05-21T02:11:14.200Z,14.83
2023-05-21T02:16:16.225Z,14.77
2023-05-21T02:21:17.988Z,14.71
2023-05-21T02:26:19.800Z,14.66
2023-05-21T02:31:21.545Z,14.60
2023-05-21T02:36:25.242Z,14.59
2023-05-21T02:41:27.203Z,14.59
2023-05-21T02:46:29.009Z,14.57
2023-05-21T02:51:31.551Z,14.57
2023-05-21T02:56:33.551Z,14.60
2023-05-21T03:01:35.423Z,14.60
2023-05-21T03:06:37.258Z,14.61
2023-05-21T03:11:38.999Z,14.63
2023-05-21T03:16:41.898Z,14.62
2023-05-21T03:21:44.708Z,14.65
2023-05-21T03:26:48.231Z,14.69
2023-05-21T03:31:52.907Z,14.74
2023-05-21T03:36:54.815Z,14.83
2023-05-21T03:41:57.294Z,14.94
2023-05-21T03:47:19.086Z,15.08
2023-05-21T03:52:21.049Z,15.51
2023-05-21T03:57:23.252Z,16.08
2023-05-21T04:02:28.202Z,16.58
2023-05-21T04:07:30.202Z,16.86
2023-05-21T04:12:32.107Z,17.02
2023-05-21T04:17:34.580Z,17.37
2023-05-21T04:22:37.294Z,17.85
2023-05-21T04:27:39.392Z,18.39
2023-05-21T04:32:45.889Z,19.32
2023-05-21T04:37:47.744Z,21.02
2023-05-21T04:42:50.983Z,22.79
2023-05-21T04:47:53.771Z,24.44
2023-05-21T04:52:55.902Z,25.67
2023-05-21T04:57:57.840Z,26.61
2023-05-21T05:02:59.979Z,27.61
2023-05-21T05:08:02.588Z,28.59
2023-05-21T05:13:04.414Z,29.55
2023-05-21T05:18:08.754Z,30.22
2023-05-21T05:23:10.857Z,30.75
2023-05-21T05:28:13.269Z,31.29
2023-05-21T05:33:15.066Z,31.77
2023-05-21T05:38:17.456Z,32.23
2023-05-21T05:43:19.403Z,32.51
2023-05-21T05:48:21.549Z,32.80
2023-05-21T05:53:23.338Z,32.98
2023-05-21T05:58:26.012Z,33.26
2023-05-21T06:03:46.086Z,33.55
2023-05-21T06:08:50.264Z,33.93
2023-05-21T06:13:53.942Z,34.17
2023-05-21T06:18:57.423Z,34.22
2023-05-21T06:23:59.772Z,34.46
2023-05-21T06:29:03.911Z,34.60
2023-05-21T06:34:06.117Z,34.72
2023-05-21T06:39:08.083Z,34.89
2023-05-21T06:44:11.125Z,34.91
2023-05-21T06:49:36.851Z,34.91
2023-05-21T06:54:38.817Z,34.97
2023-05-21T06:59:41.533Z,35.04
2023-05-21T07:04:43.885Z,35.06
2023-05-21T07:09:45.790Z,34.81
2023-05-21T07:14:47.512Z,34.79
2023-05-21T07:19:49.479Z,34.89
2023-05-21T07:24:51.382Z,34.88
2023-05-21T07:29:53.406Z,34.86
2023-05-21T07:34:56.612Z,35.02
2023-05-21T07:39:59.448Z,35.26
2023-05-21T07:45:02.262Z,35.35
2023-05-21T07:50:06.352Z,35.27
2023-05-21T07:55:10.403Z,34.99
2023-05-21T08:00:16.374Z,34.95
2023-05-21T08:05:23.610Z,35.06
2023-05-21T08:10:25.892Z,35.16
2023-05-21T08:15:27.929Z,34.88
2023-05-21T08:20:31.180Z,34.48
2023-05-21T08:25:33.238Z,34.23
2023-05-21T08:30:36.166Z,34.12
2023-05-21T08:35:38.126Z,34.15
2023-05-21T08:40:52.296Z,34.04
2023-05-21T08:45:55.573Z,33.77
2023-05-21T08:51:01.171Z,33.75
2023-05-21T08:56:07.485Z,33.75
2023-05-21T09:01:25.589Z,33.57
2023-05-21T09:06:47.054Z,33.53
2023-05-21T09:11:49.637Z,33.51
2023-05-21T09:16:51.710Z,33.48
2023-05-21T09:21:53.987Z,33.43
2023-05-21T09:26:59.108Z,33.23
2023-05-21T09:32:07.907Z,33.03
2023-05-21T09:37:23.704Z,32.67
2023-05-21T09:42:30.150Z,32.40
2023-05-21T09:47:32.565Z,32.06
2023-05-21T09:52:36.760Z,31.49
2023-05-21T09:57:42.706Z,30.92
2023-05-21T10:02:47.095Z,30.52
2023-05-21T10:07:53.701Z,29.69
2023-05-21T10:13:00.589Z,28.91
2023-05-21T10:18:03.580Z,28.42
2023-05-21T10:23:06.237Z,27.86
2023-05-21T10:28:08.076Z,27.50
2023-05-21T10:33:23.645Z,27.27
2023-05-21T10:38:27.602Z,27.12
2023-05-21T10:43:49.309Z,27.10
2023-05-21T10:49:17.808Z,27.00
2023-05-21T10:54:42.173Z,27.02
2023-05-21T10:59:47.036Z,26.99
2023-05-21T11:04:58.774Z,26.89
2023-05-21T11:10:29.971Z,26.85
2023-05-21T11:15:57.681Z,26.69
2023-05-21T11:21:16.186Z,26.48
2023-05-21T11:26:28.960Z,26.36
2023-05-21T11:31:38.798Z,26.32
2023-05-21T11:36:43.768Z,26.23
2023-05-21T11:41:52.614Z,26.18
2023-05-21T11:46:54.930Z,26.16
2023-05-21T11:51:57.478Z,26.11
2023-05-21T11:56:59.987Z,26.13
2023-05-21T12:02:05.292Z,26.19
2023-05-21T12:07:07.827Z,26.15
2023-05-21T12:12:11.407Z,26.05
2023-05-21T12:17:16.645Z,25.94
2023-05-21T12:22:18.837Z,25.86
2023-05-21T12:27:22.134Z,25.83
2023-05-21T12:32:28.398Z,25.77
2023-05-21T12:37:32.487Z,25.81
2023-05-21T12:42:36.853Z,25.87
2023-05-21T12:47:39.078Z,25.88
2023-05-21T12:52:43.184Z,25.88
2023-05-21T12:57:45.679Z,25.90
2023-05-21T13:02:47.857Z,25.88
2023-05-21T13:07:51.584Z,25.86
2023-05-21T13:12:53.517Z,25.80
2023-05-21T13:17:56.914Z,25.80
2023-05-21T13:22:59.095Z,25.83
2023-05-21T13:28:05.225Z,25.81
2023-05-21T13:33:07.324Z,25.71
2023-05-21T13:38:09.326Z,25.58
2023-05-21T13:43:11.143Z,25.46
2023-05-21T13:48:12.947Z,25.41
2023-05-21T13:53:14.777Z,25.37
2023-05-21T13:58:16.599Z,25.35
2023-05-21T14:03:18.528Z,25.25
2023-05-21T14:08:21.362Z,25.17
2023-05-21T14:13:23.077Z,25.15
2023-05-21T14:18:24.990Z,25.13
2023-05-21T14:23:26.770Z,25.13
2023-05-21T14:28:28.478Z,25.14
2023-05-21T14:33:34.428Z,25.11
2023-05-21T14:38:36.169Z,25.08
2023-05-21T14:43:37.924Z,25.08
2023-05-21T14:48:39.974Z,25.06
2023-05-21T14:53:42.081Z,24.98
2023-05-21T14:58:43.785Z,24.90
2023-05-21T15:03:45.654Z,24.83
2023-05-21T15:08:47.534Z,24.75
2023-05-21T15:13:49.387Z,24.64
2023-05-21T15:18:51.443Z,24.55
2023-05-21T15:23:53.321Z,24.49
2023-05-21T15:28:55.275Z,24.42
2023-05-21T15:33:58.455Z,24.36
2023-05-21T15:39:03.558Z,24.27
2023-05-21T15:44:05.450Z,24.18
2023-05-21T15:49:07.594Z,24.11
2023-05-21T15:54:09.263Z,24.02
2023-05-21T15:59:11.961Z,23.91
2023-05-21T16:04:15.722Z,23.81
2023-05-21T16:09:17.548Z,23.75
2023-05-21T16:14:20.603Z,23.67
2023-05-21T16:19:22.810Z,23.59
2023-05-21T16:24:24.578Z,23.53
2023-05-21T16:29:27.638Z,23.45
2023-05-21T16:34:29.636Z,23.36
2023-05-21T16:39:31.367Z,23.25
2023-05-21T16:44:33.144Z,23.13
2023-05-21T16:49:34.869Z,23.03
2023-05-21T16:54:36.563Z,22.92
2023-05-21T16:59:38.225Z,22.80
2023-05-21T17:04:40.050Z,22.68
2023-05-21T17:09:41.882Z,22.53
2023-05-21T17:14:43.663Z,22.38
2023-05-21T17:19:45.518Z,22.24
2023-05-21T17:24:47.471Z,22.06
2023-05-21T17:29:49.266Z,21.91
2023-05-21T17:34:53.064Z,21.75
2023-05-21T17:39:55.121Z,21.60
2023-05-21T17:44:56.864Z,21.48
2023-05-21T17:49:58.735Z,21.34
2023-05-21T17:55:01.271Z,21.19
2023-05-21T18:00:05.120Z,21.04
2023-05-21T18:05:13.812Z,20.87
2023-05-21T18:10:15.706Z,20.70
2023-05-21T18:15:17.558Z,20.53
2023-05-21T18:20:19.351Z,20.37
2023-05-21T18:25:21.423Z,20.21
2023-05-21T18:30:23.146Z,20.04
2023-05-21T18:35:24.830Z,19.87
2023-05-21T18:40:30.404Z,19.70
2023-05-21T18:45:33.373Z,19.53
2023-05-21T18:50:37.052Z,19.37
2023-05-21T18:55:39.118Z,19.23
2023-05-21T19:00:42.560Z,19.08
2023-05-21T19:05:44.483Z,18.91
2023-05-21T19:10:46.439Z,18.75
2023-05-21T19:15:48.959Z,18.58
2023-05-21T19:20:50.928Z,18.43
2023-05-21T19:25:52.724Z,18.28
2023-05-21T19:30:54.433Z,18.14
2023-05-21T19:35:56.836Z,17.99
2023-05-21T19:40:58.556Z,17.83
2023-05-21T19:46:00.554Z,17.68
2023-05-21T19:51:02.896Z,17.57
2023-05-21T19:56:04.683Z,17.45
2023-05-21T20:01:06.551Z,17.35
2023-05-21T20:06:08.933Z,17.29
2023-05-21T20:11:10.956Z,17.30
2023-05-21T20:16:12.862Z,17.33
2023-05-21T20:21:18.107Z,17.37
2023-05-21T20:26:20.081Z,17.39
2023-05-21T20:31:22.478Z,17.35
2023-05-21T20:36:25.863Z,17.31
2023-05-21T20:41:35.784Z,17.23
2023-05-21T20:46:38.475Z,17.14
2023-05-21T20:51:41.529Z,17.05
2023-05-21T20:56:45.065Z,16.94
2023-05-21T21:01:47.098Z,16.84
2023-05-21T21:06:50.376Z,16.73
2023-05-21T21:11:52.735Z,16.61
2023-05-21T21:16:54.475Z,16.51
2023-05-21T21:21:56.437Z,16.42
2023-05-21T21:26:58.227Z,16.34
2023-05-21T21:32:00.292Z,16.26
2023-05-21T21:37:02.125Z,16.18
2023-05-21T21:42:04.906Z,16.10
2023-05-21T21:47:10.924Z,16.00
2023-05-21T21:52:15.731Z,15.90
2023-05-21T21:57:17.445Z,15.83
2023-05-21T22:02:19.221Z,15.78
2023-05-21T22:07:21.107Z,15.73
2023-05-21T22:12:22.978Z,15.68
2023-05-21T22:17:24.842Z,15.65
2023-05-21T22:22:26.872Z,15.61
2023-05-21T22:27:28.563Z,15.54
2023-05-21T22:32:30.257Z,15.45
2023-05-21T22:37:32.248Z,15.36
2023-05-21T22:42:35.526Z,15.26
2023-05-21T22:47:39.723Z,15.15
2023-05-21T22:52:41.981Z,15.03
2023-05-21T22:57:44.295Z,14.93
2023-05-21T23:02:47.103Z,14.82
2023-05-21T23:07:49.747Z,14.72
2023-05-21T23:12:54.084Z,14.66
2023-05-21T23:17:57.004Z,14.62
2023-05-21T23:22:59.210Z,14.55
2023-05-21T23:28:01.004Z,14.40
2023-05-21T23:33:03.044Z,14.25
2023-05-21T23:38:05.997Z,14.11
2023-05-21T23:43:13.937Z,13.99
2023-05-21T23:48:17.616Z,13.87
2023-05-21T23:53:20.011Z,13.76
2023-05-21T23:58:21.716Z,13.69
